Time;durP1;ratioP1;P1;durP2;ratioP2;P2;SDS_P1;SDS_P2;PMS_P1;PMS_P2;Temp;Humidity;BMP_temperature;BMP_pressure;BME280_temperature;BME280_humidity;BME280_pressure;Samples;Min_cycle;Max_cycle;Signal;HPM_P1;HPM_P2
2022/11/30 00:00:30;;;;;;;30.43;20.70;;;;;;;;;;5073748;28;20208;-42
2022/11/30 00:02:56;;;;;;;31.47;21.83;;;;;;;;;;5073493;28;20210;-43
2022/11/30 00:05:22;;;;;;;33.23;21.67;;;;;;;;;;5073704;28;20200;-42
2022/11/30 00:07:48;;;;;;;32.47;21.37;;;;;;;;;;5073604;28;20218;-44
2022/11/30 00:10:14;;;;;;;32.57;21.53;;;;;;;;;;5073860;28;20203;-43
2022/11/30 00:12:43;;;;;;;29.60;19.53;;;;;;;;;;5073684;28;20298;-43
2022/11/30 00:15:12;;;;;;;30.17;20.13;;;;;;;;;;5072676;28;20199;-42
2022/11/30 00:17:38;;;;;;;27.53;19.73;;;;;;;;;;5073557;28;20224;-43
2022/11/30 00:20:05;;;;;;;32.20;21.43;;;;;;;;;;5073388;28;20203;-43
2022/11/30 00:22:31;;;;;;;28.43;19.87;;;;;;;;;;5073432;28;20206;-43
2022/11/30 00:25:02;;;;;;;28.63;20.57;;;;;;;;;;5073314;28;20199;-43
2022/11/30 00:27:28;;;;;;;29.60;20.37;;;;;;;;;;5073050;28;20666;-43
2022/11/30 00:29:54;;;;;;;28.43;20.13;;;;;;;;;;5073207;28;20355;-43
2022/11/30 00:32:21;;;;;;;30.43;19.73;;;;;;;;;;5073206;28;20983;-43
2022/11/30 00:34:47;;;;;;;29.77;19.80;;;;;;;;;;5073143;28;20210;-43
2022/11/30 00:37:13;;;;;;;28.37;20.00;;;;;;;;;;5072996;28;20196;-43
2022/11/30 00:39:39;;;;;;;31.77;19.67;;;;;;;;;;5072806;28;20196;-43
2022/11/30 00:42:05;;;;;;;27.60;19.23;;;;;;;;;;5072914;28;20221;-43
2022/11/30 00:44:31;;;;;;;26.83;19.97;;;;;;;;;;5072973;28;20290;-43
2022/11/30 00:46:57;;;;;;;29.80;20.40;;;;;;;;;;5072781;28;20278;-43
2022/11/30 00:49:25;;;;;;;32.47;20.90;;;;;;;;;;5069217;28;20282;-44
2022/11/30 00:51:52;;;;;;;32.87;20.10;;;;;;;;;;5072754;28;20204;-44
2022/11/30 00:54:18;;;;;;;32.33;20.33;;;;;;;;;;5072627;28;20195;-43
2022/11/30 00:56:44;;;;;;;29.70;19.57;;;;;;;;;;5072633;28;20674;-44
2022/11/30 00:59:10;;;;;;;31.23;21.07;;;;;;;;;;5072581;28;20223;-43
2022/11/30 01:01:36;;;;;;;33.53;20.93;;;;;;;;;;5072756;28;20196;-43
2022/11/30 01:04:02;;;;;;;31.00;21.07;;;;;;;;;;5072541;28;20194;-44
2022/11/30 01:06:30;;;;;;;30.87;20.37;;;;;;;;;;5072546;28;20206;-43
2022/11/30 01:08:57;;;;;;;30.87;20.57;;;;;;;;;;5072303;28;20219;-43
2022/11/30 01:11:24;;;;;;;30.70;20.67;;;;;;;;;;5072414;28;20199;-43
2022/11/30 01:13:50;;;;;;;33.50;21.40;;;;;;;;;;5072411;28;20270;-43
2022/11/30 01:16:18;;;;;;;32.20;21.20;;;;;;;;;;5072277;28;20195;-43
2022/11/30 01:18:44;;;;;;;28.57;19.03;;;;;;;;;;5072101;28;20751;-44
2022/11/30 01:21:12;;;;;;;28.20;19.27;;;;;;;;;;5072158;28;20195;-44
2022/11/30 01:23:40;;;;;;;33.03;21.13;;;;;;;;;;5072228;28;20215;-44
2022/11/30 01:26:06;;;;;;;31.07;21.07;;;;;;;;;;5071486;28;20578;-44
2022/11/30 01:28:32;;;;;;;36.60;21.83;;;;;;;;;;5072146;28;20219;-44
2022/11/30 01:30:59;;;;;;;34.90;21.43;;;;;;;;;;5071914;28;20206;-44
2022/11/30 01:33:25;;;;;;;36.97;22.13;;;;;;;;;;5071977;28;20212;-44
2022/11/30 01:35:58;;;;;;;35.47;22.50;;;;;;;;;;5071874;28;20199;-44
2022/11/30 01:38:24;;;;;;;34.33;22.70;;;;;;;;;;5071803;28;20608;-43
2022/11/30 01:40:51;;;;;;;37.33;23.10;;;;;;;;;;5071844;28;20261;-44
2022/11/30 01:43:18;;;;;;;36.73;21.67;;;;;;;;;;5071845;28;20283;-44
2022/11/30 01:45:45;;;;;;;38.53;25.20;;;;;;;;;;5071927;28;20187;-44
2022/11/30 01:48:11;;;;;;;38.57;22.97;;;;;;;;;;5071943;28;20241;-44
2022/11/30 01:50:37;;;;;;;35.73;22.87;;;;;;;;;;5071591;28;20273;-44
2022/11/30 01:53:04;;;;;;;34.07;21.97;;;;;;;;;;5071648;28;20640;-43
2022/11/30 01:55:32;;;;;;;36.13;20.83;;;;;;;;;;5071883;28;20203;-44
2022/11/30 01:58:01;;;;;;;43.47;23.27;;;;;;;;;;5071517;28;20219;-44
2022/11/30 02:00:27;;;;;;;38.03;22.33;;;;;;;;;;5071789;28;20227;-44
2022/11/30 02:02:56;;;;;;;39.33;23.10;;;;;;;;;;5071538;28;20617;-44
2022/11/30 02:05:22;;;;;;;35.97;20.93;;;;;;;;;;5071619;28;20195;-43
2022/11/30 02:07:48;;;;;;;35.87;20.97;;;;;;;;;;5071452;28;20196;-44
2022/11/30 02:10:15;;;;;;;34.50;21.80;;;;;;;;;;5071315;28;20256;-44
2022/11/30 02:12:47;;;;;;;32.93;20.87;;;;;;;;;;5071694;28;20207;-44
2022/11/30 02:15:24;;;;;;;32.23;20.77;;;;;;;;;;5071571;28;20654;-43
2022/11/30 02:17:53;;;;;;;30.33;19.27;;;;;;;;;;5071417;28;20285;-44
2022/11/30 02:20:52;;;;;;;31.30;20.57;;;;;;;;;;5071314;28;20195;-43
2022/11/30 02:23:35;;;;;;;30.10;19.43;;;;;;;;;;5009402;28;20216;-43
2022/11/30 02:26:08;;;;;;;32.47;19.83;;;;;;;;;;5009398;28;20225;-42
2022/11/30 02:28:53;;;;;;;31.53;20.07;;;;;;;;;;5046700;28;20210;-43
2022/11/30 02:31:22;;;;;;;36.17;20.87;;;;;;;;;;5071276;28;20199;-42
2022/11/30 02:33:48;;;;;;;30.20;19.13;;;;;;;;;;5071261;28;20223;-43
2022/11/30 02:36:15;;;;;;;28.00;18.50;;;;;;;;;;5071228;28;20294;-43
2022/11/30 02:38:41;;;;;;;31.83;19.47;;;;;;;;;;5074203;28;20227;-43
2022/11/30 02:41:07;;;;;;;26.97;19.50;;;;;;;;;;5075190;28;20257;-44
2022/11/30 02:43:34;;;;;;;28.70;18.37;;;;;;;;;;5075188;28;20206;-44
2022/11/30 02:46:06;;;;;;;29.77;18.87;;;;;;;;;;5074947;28;20286;-43
2022/11/30 02:48:38;;;;;;;29.23;18.37;;;;;;;;;;5075083;28;20210;-43
2022/11/30 02:51:07;;;;;;;25.87;17.63;;;;;;;;;;5074811;28;20242;-43
2022/11/30 02:53:33;;;;;;;27.83;18.80;;;;;;;;;;5075087;28;20191;-43
2022/11/30 02:55:59;;;;;;;28.33;18.37;;;;;;;;;;5074844;28;20207;-43
2022/11/30 02:58:25;;;;;;;25.47;17.80;;;;;;;;;;5074848;28;20223;-43
2022/11/30 03:00:51;;;;;;;26.27;17.50;;;;;;;;;;5074831;28;20207;-50
2022/11/30 03:03:18;;;;;;;24.77;17.03;;;;;;;;;;5074716;28;20207;-44
2022/11/30 03:05:44;;;;;;;22.97;16.23;;;;;;;;;;5074641;28;20195;-43
2022/11/30 03:08:11;;;;;;;25.17;17.13;;;;;;;;;;5074462;28;20310;-43
2022/11/30 03:10:37;;;;;;;22.60;16.27;;;;;;;;;;5074669;28;20222;-43
2022/11/30 03:13:03;;;;;;;22.97;15.37;;;;;;;;;;5074810;28;20658;-43
2022/11/30 03:15:29;;;;;;;25.40;16.10;;;;;;;;;;5074672;28;20196;-43
2022/11/30 03:17:55;;;;;;;24.60;16.40;;;;;;;;;;5074375;28;20700;-43
2022/11/30 03:20:22;;;;;;;25.53;16.50;;;;;;;;;;5074421;28;20211;-43
2022/11/30 03:25:56;;;;;;;22.03;14.77;;;;;;;;;;5074434;28;20167;-43
2022/11/30 03:28:22;;;;;;;23.70;15.80;;;;;;;;;;5074374;28;20564;-43
2022/11/30 03:30:48;;;;;;;22.70;15.60;;;;;;;;;;5074256;28;20685;-43
2022/11/30 03:33:15;;;;;;;23.23;15.90;;;;;;;;;;5074123;28;20199;-43
2022/11/30 03:35:43;;;;;;;26.10;16.07;;;;;;;;;;5074061;28;20223;-43
2022/11/30 03:38:09;;;;;;;22.60;15.43;;;;;;;;;;5074229;28;20255;-43
2022/11/30 03:40:35;;;;;;;22.67;15.07;;;;;;;;;;5074027;28;20203;-43
2022/11/30 03:43:01;;;;;;;23.63;15.80;;;;;;;;;;5074001;28;20677;-43
2022/11/30 03:45:27;;;;;;;23.93;15.43;;;;;;;;;;5073974;28;20199;-43
2022/11/30 03:47:53;;;;;;;21.43;15.17;;;;;;;;;;5073877;28;20655;-43
2022/11/30 03:50:19;;;;;;;20.37;14.80;;;;;;;;;;5072848;28;20246;-43
2022/11/30 03:52:47;;;;;;;22.87;15.10;;;;;;;;;;5073876;28;20207;-43
2022/11/30 03:55:13;;;;;;;20.50;14.53;;;;;;;;;;5073936;28;20298;-43
2022/11/30 03:57:39;;;;;;;23.23;16.57;;;;;;;;;;5073902;28;20199;-43
2022/11/30 04:00:06;;;;;;;22.33;14.80;;;;;;;;;;5073937;28;20195;-43
2022/11/30 04:02:32;;;;;;;21.73;15.23;;;;;;;;;;5073595;28;20200;-43
2022/11/30 04:04:58;;;;;;;21.40;15.73;;;;;;;;;;5073664;28;20511;-43
2022/11/30 04:07:24;;;;;;;20.87;15.33;;;;;;;;;;5073748;28;20560;-43
2022/11/30 04:09:52;;;;;;;20.27;14.53;;;;;;;;;;5073546;28;20281;-43
2022/11/30 04:12:18;;;;;;;23.97;15.77;;;;;;;;;;5073615;28;20227;-43
2022/11/30 04:14:44;;;;;;;21.03;15.63;;;;;;;;;;5073410;28;20624;-43
2022/11/30 04:17:10;;;;;;;25.57;17.17;;;;;;;;;;5073365;28;20208;-43
2022/11/30 04:19:36;;;;;;;24.47;15.33;;;;;;;;;;5073116;28;21021;-43
2022/11/30 04:22:02;;;;;;;23.97;16.67;;;;;;;;;;5073333;28;20207;-43
2022/11/30 04:24:28;;;;;;;26.43;17.30;;;;;;;;;;5073166;28;20183;-43
2022/11/30 04:26:55;;;;;;;26.47;17.37;;;;;;;;;;5073445;28;20195;-43
2022/11/30 04:29:21;;;;;;;30.57;18.53;;;;;;;;;;5073088;28;20200;-43
2022/11/30 04:31:47;;;;;;;27.00;17.50;;;;;;;;;;5073039;28;20245;-43
2022/11/30 04:34:13;;;;;;;27.57;17.57;;;;;;;;;;5072986;28;20192;-43
2022/11/30 04:36:39;;;;;;;27.57;18.50;;;;;;;;;;5072922;28;20195;-43
2022/11/30 04:39:05;;;;;;;26.50;17.60;;;;;;;;;;5072814;28;20227;-43
2022/11/30 04:41:31;;;;;;;25.63;16.90;;;;;;;;;;5072772;28;20191;-43
2022/11/30 04:43:59;;;;;;;26.00;17.73;;;;;;;;;;5072863;28;20240;-43
2022/11/30 04:46:25;;;;;;;24.87;17.37;;;;;;;;;;5072751;28;20647;-43
2022/11/30 04:48:51;;;;;;;27.63;17.93;;;;;;;;;;5072988;28;20191;-43
2022/11/30 04:51:17;;;;;;;25.93;17.67;;;;;;;;;;5072627;28;20231;-43
2022/11/30 04:53:43;;;;;;;30.80;19.30;;;;;;;;;;5072660;28;20563;-43
2022/11/30 04:56:10;;;;;;;29.30;19.27;;;;;;;;;;5072616;28;20195;-43
2022/11/30 04:58:37;;;;;;;31.97;19.43;;;;;;;;;;5072330;28;20232;-42
2022/11/30 05:01:05;;;;;;;28.93;19.27;;;;;;;;;;5072480;28;20411;-43
2022/11/30 05:03:31;;;;;;;29.23;18.63;;;;;;;;;;5072164;28;20745;-42
2022/11/30 05:05:57;;;;;;;28.30;18.97;;;;;;;;;;5072475;28;20200;-42
2022/11/30 05:08:23;;;;;;;30.50;19.73;;;;;;;;;;5072407;28;20282;-42
2022/11/30 05:10:51;;;;;;;29.90;18.57;;;;;;;;;;5072341;28;20199;-42
2022/11/30 05:13:17;;;;;;;27.97;19.33;;;;;;;;;;5072271;28;20731;-43
2022/11/30 05:15:43;;;;;;;29.13;18.80;;;;;;;;;;5072238;28;20279;-42
2022/11/30 05:18:10;;;;;;;27.03;18.43;;;;;;;;;;5072111;28;20641;-42
2022/11/30 05:20:36;;;;;;;28.80;18.60;;;;;;;;;;5070865;28;20290;-43
2022/11/30 05:23:02;;;;;;;29.57;19.13;;;;;;;;;;5072206;28;20295;-43
2022/11/30 05:25:28;;;;;;;28.60;19.37;;;;;;;;;;5072142;28;20282;-42
2022/11/30 05:27:54;;;;;;;29.10;19.60;;;;;;;;;;5072060;28;20203;-42
2022/11/30 05:30:21;;;;;;;31.03;19.30;;;;;;;;;;5072045;28;20198;-42
2022/11/30 05:32:47;;;;;;;30.60;20.60;;;;;;;;;;5071876;28;20192;-42
2022/11/30 05:35:14;;;;;;;28.93;19.13;;;;;;;;;;5071931;28;20283;-43
2022/11/30 05:37:40;;;;;;;31.33;19.43;;;;;;;;;;5071702;28;20203;-43
2022/11/30 05:40:07;;;;;;;29.93;19.10;;;;;;;;;;5071922;28;20218;-43
2022/11/30 05:42:33;;;;;;;25.73;18.50;;;;;;;;;;5071796;28;20234;-43
2022/11/30 05:44:59;;;;;;;28.17;19.33;;;;;;;;;;5071842;28;20569;-43
2022/11/30 05:47:25;;;;;;;28.63;19.43;;;;;;;;;;5071744;28;20669;-43
2022/11/30 05:49:51;;;;;;;29.27;19.47;;;;;;;;;;5071620;28;20721;-43
2022/11/30 05:52:18;;;;;;;27.83;18.70;;;;;;;;;;5071831;28;20210;-43
2022/11/30 05:54:44;;;;;;;26.20;18.20;;;;;;;;;;5071706;28;20302;-43
2022/11/30 05:57:10;;;;;;;25.90;17.37;;;;;;;;;;5071736;28;20286;-43
2022/11/30 05:59:36;;;;;;;29.20;18.97;;;;;;;;;;5071480;28;20259;-43
2022/11/30 06:02:02;;;;;;;28.70;18.13;;;;;;;;;;5071662;28;20304;-44
2022/11/30 06:04:28;;;;;;;26.63;18.60;;;;;;;;;;5071456;28;20274;-44
2022/11/30 06:06:54;;;;;;;28.87;18.47;;;;;;;;;;5071437;28;20207;-44
2022/11/30 06:09:26;;;;;;;30.30;19.93;;;;;;;;;;5071551;28;20221;-43
2022/11/30 06:11:52;;;;;;;30.80;19.83;;;;;;;;;;5072325;28;20210;-43
2022/11/30 06:14:18;;;;;;;28.53;19.30;;;;;;;;;;5077903;28;20727;-43
2022/11/30 06:16:44;;;;;;;28.80;18.73;;;;;;;;;;5078058;28;20195;-43
2022/11/30 06:19:10;;;;;;;27.87;18.73;;;;;;;;;;5077780;28;20318;-43
2022/11/30 06:21:36;;;;;;;30.13;18.53;;;;;;;;;;5077704;28;20203;-44
2022/11/30 06:24:02;;;;;;;30.13;19.73;;;;;;;;;;5077965;28;20200;-44
2022/11/30 06:26:29;;;;;;;30.20;19.33;;;;;;;;;;5077913;28;20195;-43
2022/11/30 06:28:55;;;;;;;31.90;19.37;;;;;;;;;;5077981;28;20249;-45
2022/11/30 06:31:21;;;;;;;32.20;19.67;;;;;;;;;;5077969;28;20192;-43
2022/11/30 06:33:47;;;;;;;28.43;18.97;;;;;;;;;;5077829;28;20192;-44
2022/11/30 06:36:13;;;;;;;29.87;18.97;;;;;;;;;;5077920;28;20199;-44
2022/11/30 06:38:39;;;;;;;28.20;18.30;;;;;;;;;;5077771;28;20223;-43
2022/11/30 06:41:06;;;;;;;28.77;18.73;;;;;;;;;;5078055;28;20256;-45
2022/11/30 06:43:35;;;;;;;25.73;18.60;;;;;;;;;;5078051;28;20215;-42
2022/11/30 06:46:01;;;;;;;29.93;19.27;;;;;;;;;;5078065;28;20434;-45
2022/11/30 06:48:27;;;;;;;27.27;18.37;;;;;;;;;;5077948;28;20196;-44
2022/11/30 06:50:53;;;;;;;24.83;17.03;;;;;;;;;;5077567;28;20227;-44
2022/11/30 06:53:20;;;;;;;28.33;17.40;;;;;;;;;;5077985;28;20203;-43
2022/11/30 06:55:46;;;;;;;23.87;16.67;;;;;;;;;;5077826;28;20253;-43
2022/11/30 06:58:12;;;;;;;24.73;16.47;;;;;;;;;;5077841;28;20298;-43
2022/11/30 07:00:39;;;;;;;26.30;17.37;;;;;;;;;;5077773;28;20253;-44
2022/11/30 07:03:07;;;;;;;24.70;17.07;;;;;;;;;;5077756;28;20257;-44
2022/11/30 07:05:34;;;;;;;27.57;17.53;;;;;;;;;;5077723;28;20248;-44
2022/11/30 07:08:00;;;;;;;26.80;17.80;;;;;;;;;;5077721;28;20210;-44
2022/11/30 07:10:26;;;;;;;24.37;17.50;;;;;;;;;;5077696;28;20704;-44
2022/11/30 07:12:52;;;;;;;26.97;17.70;;;;;;;;;;5077739;28;20195;-45
2022/11/30 07:15:18;;;;;;;24.27;17.23;;;;;;;;;;5077708;28;20195;-44
2022/11/30 07:17:46;;;;;;;24.83;16.93;;;;;;;;;;5077497;28;20248;-43
2022/11/30 07:20:12;;;;;;;22.70;17.00;;;;;;;;;;5077877;28;20299;-43
2022/11/30 07:22:38;;;;;;;25.53;16.97;;;;;;;;;;5077526;28;20195;-44
2022/11/30 07:27:49;;;;;;;23.30;16.23;;;;;;;;;;5074353;28;20194;-43
2022/11/30 07:30:15;;;;;;;24.43;16.30;;;;;;;;;;5074518;28;20204;-44
2022/11/30 07:32:41;;;;;;;28.87;17.73;;;;;;;;;;5074536;28;20199;-43
2022/11/30 07:35:09;;;;;;;24.87;17.13;;;;;;;;;;5074335;28;20199;-43
2022/11/30 07:37:35;;;;;;;27.97;16.97;;;;;;;;;;5074101;28;20253;-44
2022/11/30 07:40:01;;;;;;;26.43;17.10;;;;;;;;;;5074195;28;20281;-44
2022/11/30 07:42:27;;;;;;;27.13;17.33;;;;;;;;;;5074187;28;20283;-43
2022/11/30 07:44:53;;;;;;;25.33;17.27;;;;;;;;;;5074081;28;20246;-43
2022/11/30 07:47:19;;;;;;;27.80;17.87;;;;;;;;;;5074127;28;20202;-43
2022/11/30 07:49:45;;;;;;;27.27;17.70;;;;;;;;;;5073731;28;20239;-44
2022/11/30 07:52:13;;;;;;;22.80;16.33;;;;;;;;;;5074099;28;20199;-44
2022/11/30 07:54:39;;;;;;;26.63;17.27;;;;;;;;;;5073884;28;20497;-44
2022/11/30 07:57:05;;;;;;;26.37;18.03;;;;;;;;;;5073978;28;20238;-45
2022/11/30 07:59:31;;;;;;;26.83;17.67;;;;;;;;;;5073668;28;20219;-43
2022/11/30 08:01:57;;;;;;;26.83;18.13;;;;;;;;;;5073648;28;21002;-43
2022/11/30 08:04:23;;;;;;;28.23;18.07;;;;;;;;;;5073779;28;20204;-44
2022/11/30 08:06:49;;;;;;;28.60;18.70;;;;;;;;;;5073885;28;20208;-44
2022/11/30 08:09:16;;;;;;;27.77;17.57;;;;;;;;;;5073615;28;20716;-43
2022/11/30 08:11:42;;;;;;;30.33;18.60;;;;;;;;;;5073469;28;20208;-43
2022/11/30 08:14:11;;;;;;;27.97;19.00;;;;;;;;;;5073336;28;20195;-43
2022/11/30 08:16:37;;;;;;;26.17;17.57;;;;;;;;;;5073305;28;20658;-43
2022/11/30 08:19:03;;;;;;;28.57;17.90;;;;;;;;;;5073410;28;20480;-42
2022/11/30 08:21:31;;;;;;;26.60;17.40;;;;;;;;;;5073446;28;20219;-43
2022/11/30 08:23:57;;;;;;;26.10;17.53;;;;;;;;;;5073319;28;20916;-43
2022/11/30 08:26:26;;;;;;;25.43;17.73;;;;;;;;;;5073210;28;20451;-43
2022/11/30 08:28:52;;;;;;;29.93;17.83;;;;;;;;;;5073072;28;20701;-44
2022/11/30 08:31:19;;;;;;;27.13;17.33;;;;;;;;;;5073308;28;20411;-44
2022/11/30 08:33:45;;;;;;;27.20;18.10;;;;;;;;;;5072949;28;20851;-43
2022/11/30 08:36:12;;;;;;;28.90;18.83;;;;;;;;;;5072705;28;20665;-45
2022/11/30 08:38:39;;;;;;;28.60;18.77;;;;;;;;;;5072905;28;20207;-43
2022/11/30 08:41:06;;;;;;;26.37;17.33;;;;;;;;;;5073087;28;20210;-45
2022/11/30 08:43:33;;;;;;;26.43;18.20;;;;;;;;;;5072887;28;20200;-43
2022/11/30 08:46:01;;;;;;;28.40;19.07;;;;;;;;;;5072871;28;20659;-43
2022/11/30 08:48:27;;;;;;;29.10;19.37;;;;;;;;;;5072710;28;20282;-45
2022/11/30 08:50:53;;;;;;;31.50;19.90;;;;;;;;;;5072639;28;20318;-44
2022/11/30 08:53:19;;;;;;;31.77;19.70;;;;;;;;;;5072814;28;20227;-43
2022/11/30 08:55:54;;;;;;;31.17;20.70;;;;;;;;;;5072732;28;20682;-42
2022/11/30 08:58:20;;;;;;;33.93;20.80;;;;;;;;;;5072697;28;20211;-44
2022/11/30 09:00:47;;;;;;;33.00;21.13;;;;;;;;;;5072617;28;20206;-45
2022/11/30 09:03:13;;;;;;;33.47;21.63;;;;;;;;;;5072514;28;20215;-44
2022/11/30 09:05:39;;;;;;;31.77;20.30;;;;;;;;;;5072409;28;20693;-44
2022/11/30 09:08:08;;;;;;;32.80;20.83;;;;;;;;;;5072421;28;20294;-44
2022/11/30 09:10:34;;;;;;;31.23;19.73;;;;;;;;;;5072120;28;20199;-44
2022/11/30 09:13:00;;;;;;;29.47;19.50;;;;;;;;;;5072269;28;20199;-43
2022/11/30 09:15:26;;;;;;;29.47;20.53;;;;;;;;;;5072292;28;20200;-43
2022/11/30 09:17:54;;;;;;;30.60;20.60;;;;;;;;;;5072220;28;20204;-44
2022/11/30 09:20:20;;;;;;;31.37;20.97;;;;;;;;;;5070505;28;20268;-44
2022/11/30 09:22:46;;;;;;;30.00;19.50;;;;;;;;;;5071933;28;20669;-44
2022/11/30 09:25:12;;;;;;;29.17;19.63;;;;;;;;;;5071951;28;20924;-43
2022/11/30 09:27:38;;;;;;;33.23;20.53;;;;;;;;;;5071962;28;20342;-44
2022/11/30 09:30:05;;;;;;;32.03;20.37;;;;;;;;;;5071832;28;20638;-44
2022/11/30 09:32:31;;;;;;;34.13;20.87;;;;;;;;;;5071704;28;20242;-45
2022/11/30 09:34:58;;;;;;;30.57;20.43;;;;;;;;;;5071938;28;20286;-42
2022/11/30 09:37:24;;;;;;;32.63;20.03;;;;;;;;;;5071663;28;20266;-44
2022/11/30 09:39:51;;;;;;;32.50;19.93;;;;;;;;;;5071717;28;20270;-44
2022/11/30 09:42:29;;;;;;;33.90;21.23;;;;;;;;;;5071747;28;20203;-43
2022/11/30 09:44:59;;;;;;;34.37;22.03;;;;;;;;;;5071771;28;20214;-43
2022/11/30 09:47:46;;;;;;;31.17;20.80;;;;;;;;;;5071001;28;20616;-43
2022/11/30 09:50:15;;;;;;;29.00;19.73;;;;;;;;;;5066458;28;20239;-44
2022/11/30 09:52:43;;;;;;;30.67;19.63;;;;;;;;;;5071388;28;20808;-42
2022/11/30 09:55:09;;;;;;;30.07;19.97;;;;;;;;;;5071709;28;20222;-43
2022/11/30 09:57:41;;;;;;;33.80;20.97;;;;;;;;;;5071436;28;20215;-44
2022/11/30 10:00:13;;;;;;;33.03;21.67;;;;;;;;;;5071524;28;20233;-43
2022/11/30 10:02:40;;;;;;;34.43;22.00;;;;;;;;;;5071257;28;20717;-44
2022/11/30 10:05:11;;;;;;;32.03;20.70;;;;;;;;;;5071744;28;20203;-43
2022/11/30 10:07:45;;;;;;;32.40;20.47;;;;;;;;;;5071529;28;20804;-43
2022/11/30 10:10:16;;;;;;;33.20;21.17;;;;;;;;;;5071677;28;20277;-43
2022/11/30 10:12:44;;;;;;;32.53;19.63;;;;;;;;;;5071353;28;20199;-44
2022/11/30 10:15:22;;;;;;;35.67;22.33;;;;;;;;;;5070082;28;20195;-44
2022/11/30 10:17:52;;;;;;;31.87;19.93;;;;;;;;;;5071324;28;20199;-44
2022/11/30 10:20:24;;;;;;;31.00;19.60;;;;;;;;;;5071380;28;20263;-44
2022/11/30 10:22:57;;;;;;;31.77;20.03;;;;;;;;;;5071640;28;20199;-44
2022/11/30 10:25:24;;;;;;;29.33;19.97;;;;;;;;;;5071373;28;20337;-44
2022/11/30 10:27:51;;;;;;;31.97;19.87;;;;;;;;;;5069902;28;20226;-44
2022/11/30 10:30:18;;;;;;;32.60;20.53;;;;;;;;;;5071441;28;20197;-44
2022/11/30 10:32:45;;;;;;;32.20;20.00;;;;;;;;;;5071071;28;20195;-44
2022/11/30 10:35:16;;;;;;;29.50;19.70;;;;;;;;;;5071152;28;20283;-44
2022/11/30 10:37:43;;;;;;;34.57;22.10;;;;;;;;;;5071170;28;20199;-44
2022/11/30 10:40:13;;;;;;;33.83;20.20;;;;;;;;;;5071216;28;20698;-44
2022/11/30 10:42:43;;;;;;;34.60;20.83;;;;;;;;;;5071087;28;20195;-44
2022/11/30 10:45:10;;;;;;;35.93;21.23;;;;;;;;;;5071165;28;20244;-44
2022/11/30 10:47:40;;;;;;;36.50;22.10;;;;;;;;;;5070972;28;20199;-44
2022/11/30 10:50:07;;;;;;;35.20;21.07;;;;;;;;;;5070899;28;20698;-43
2022/11/30 10:52:35;;;;;;;37.23;20.33;;;;;;;;;;5071006;28;20296;-43
2022/11/30 10:55:01;;;;;;;35.33;21.07;;;;;;;;;;5071082;28;20229;-43
2022/11/30 10:57:30;;;;;;;41.27;22.77;;;;;;;;;;5071209;28;20666;-43
2022/11/30 10:59:57;;;;;;;38.03;21.87;;;;;;;;;;5074086;28;20219;-43
2022/11/30 11:02:37;;;;;;;39.40;22.20;;;;;;;;;;5074496;28;20246;-43
2022/11/30 11:05:08;;;;;;;37.23;22.27;;;;;;;;;;5074792;28;20191;-44
2022/11/30 11:07:43;;;;;;;40.90;23.23;;;;;;;;;;5074437;28;20203;-44
2022/11/30 11:10:12;;;;;;;39.80;23.33;;;;;;;;;;5074780;28;20217;-45
2022/11/30 11:12:45;;;;;;;36.57;21.63;;;;;;;;;;5074288;28;20291;-43
2022/11/30 11:15:17;;;;;;;43.83;22.63;;;;;;;;;;5074380;28;20200;-43
2022/11/30 11:17:43;;;;;;;38.70;23.03;;;;;;;;;;5074250;28;20662;-42
2022/11/30 11:20:25;;;;;;;37.90;21.60;;;;;;;;;;5074547;28;20229;-43
2022/11/30 11:22:52;;;;;;;39.17;22.27;;;;;;;;;;5074347;28;20203;-44
2022/11/30 11:25:20;;;;;;;37.80;21.63;;;;;;;;;;5074646;28;20195;-44
2022/11/30 11:27:51;;;;;;;35.60;22.20;;;;;;;;;;5074485;28;20465;-44
2022/11/30 11:30:27;;;;;;;37.37;26.03;;;;;;;;;;5074569;28;20218;-44
2022/11/30 11:32:59;;;;;;;35.30;22.17;;;;;;;;;;5074443;28;20249;-44
2022/11/30 11:35:33;;;;;;;35.10;21.37;;;;;;;;;;5074368;28;20204;-44
2022/11/30 11:37:59;;;;;;;32.03;20.63;;;;;;;;;;5074453;28;20245;-44
2022/11/30 11:40:25;;;;;;;42.33;28.10;;;;;;;;;;5074203;28;20235;-44
2022/11/30 11:42:53;;;;;;;40.50;28.33;;;;;;;;;;5074244;28;20240;-44
2022/11/30 11:45:20;;;;;;;33.87;20.70;;;;;;;;;;5074259;28;20220;-45
2022/11/30 11:47:57;;;;;;;34.70;21.80;;;;;;;;;;5073999;28;20295;-45
2022/11/30 11:50:28;;;;;;;34.73;25.43;;;;;;;;;;5073961;28;20228;-46
2022/11/30 11:53:23;;;;;;;33.50;21.60;;;;;;;;;;5073930;28;20203;-45
2022/11/30 11:55:54;;;;;;;28.73;18.47;;;;;;;;;;5039129;28;20196;-45
2022/11/30 11:58:26;;;;;;;32.27;19.43;;;;;;;;;;5073863;28;20565;-44
2022/11/30 12:00:53;;;;;;;36.37;24.33;;;;;;;;;;5073817;28;20666;-45
2022/11/30 12:03:24;;;;;;;35.03;21.03;;;;;;;;;;5073858;28;20191;-45
2022/11/30 12:05:52;;;;;;;33.10;19.97;;;;;;;;;;5073711;28;20231;-45
2022/11/30 12:08:23;;;;;;;30.03;19.00;;;;;;;;;;5073703;28;20272;-45
2022/11/30 12:10:50;;;;;;;32.63;19.37;;;;;;;;;;5073297;28;20208;-44
2022/11/30 12:13:18;;;;;;;32.50;20.20;;;;;;;;;;5073549;28;20200;-44
2022/11/30 12:15:51;;;;;;;31.17;19.17;;;;;;;;;;5073613;28;20245;-45
2022/11/30 12:18:19;;;;;;;31.07;20.07;;;;;;;;;;5073436;28;20226;-45
2022/11/30 12:20:52;;;;;;;35.00;19.30;;;;;;;;;;5073495;28;20207;-45
2022/11/30 12:23:33;;;;;;;32.67;19.80;;;;;;;;;;5073449;28;20627;-44
2022/11/30 12:26:04;;;;;;;32.83;19.60;;;;;;;;;;5070874;28;20197;-43
2022/11/30 12:28:33;;;;;;;39.57;20.93;;;;;;;;;;5073324;28;20226;-43
2022/11/30 12:31:10;;;;;;;35.47;20.77;;;;;;;;;;5073212;28;20662;-43
2022/11/30 12:33:42;;;;;;;35.80;20.73;;;;;;;;;;5068433;28;20207;-44
2022/11/30 12:36:13;;;;;;;31.47;20.30;;;;;;;;;;5072693;28;20226;-44
2022/11/30 12:38:44;;;;;;;38.57;20.80;;;;;;;;;;5073036;28;20219;-44
2022/11/30 12:41:18;;;;;;;38.33;21.50;;;;;;;;;;5073214;28;20218;-44
2022/11/30 12:43:48;;;;;;;35.07;21.37;;;;;;;;;;5072877;28;20278;-46
2022/11/30 12:46:22;;;;;;;36.07;21.37;;;;;;;;;;5072142;28;20211;-45
2022/11/30 12:48:54;;;;;;;35.83;21.03;;;;;;;;;;5072458;28;20621;-44
2022/11/30 12:51:23;;;;;;;37.60;22.47;;;;;;;;;;5072718;28;20686;-45
2022/11/30 12:53:53;;;;;;;34.30;21.90;;;;;;;;;;5068999;28;20196;-45
2022/11/30 12:56:24;;;;;;;35.27;21.33;;;;;;;;;;5072432;28;20219;-44
2022/11/30 12:58:52;;;;;;;37.47;21.93;;;;;;;;;;5072258;28;20220;-45
2022/11/30 13:01:28;;;;;;;40.57;23.73;;;;;;;;;;5072558;28;20246;-45
2022/11/30 13:03:58;;;;;;;39.90;24.53;;;;;;;;;;5072399;28;20661;-44
2022/11/30 13:06:27;;;;;;;43.80;24.73;;;;;;;;;;5072601;28;20199;-44
2022/11/30 13:08:59;;;;;;;40.13;24.53;;;;;;;;;;5072379;28;20212;-44
2022/11/30 13:11:28;;;;;;;39.70;23.43;;;;;;;;;;5073041;28;20286;-45
2022/11/30 13:13:55;;;;;;;41.77;22.77;;;;;;;;;;5072489;28;20196;-45
2022/11/30 13:16:24;;;;;;;43.93;24.07;;;;;;;;;;5072341;28;20538;-45
2022/11/30 13:18:50;;;;;;;49.93;26.13;;;;;;;;;;5071962;28;20215;-43
2022/11/30 13:21:20;;;;;;;49.43;28.40;;;;;;;;;;5072056;28;20341;-44
2022/11/30 13:23:49;;;;;;;45.57;25.37;;;;;;;;;;5071761;28;20204;-43
2022/11/30 13:26:19;;;;;;;53.50;34.97;;;;;;;;;;5072402;28;20290;-45
2022/11/30 13:28:52;;;;;;;57.30;37.13;;;;;;;;;;5072243;28;20183;-45
2022/11/30 13:31:20;;;;;;;58.03;37.80;;;;;;;;;;5072363;28;20282;-45
2022/11/30 13:33:49;;;;;;;64.70;43.17;;;;;;;;;;5072025;28;20199;-45
2022/11/30 13:36:22;;;;;;;101.90;77.23;;;;;;;;;;5072155;28;20211;-44
2022/11/30 13:39:08;;;;;;;47.17;27.50;;;;;;;;;;5071961;28;20237;-43
2022/11/30 13:41:35;;;;;;;59.63;38.03;;;;;;;;;;5072170;28;20212;-44
2022/11/30 13:44:01;;;;;;;49.87;31.00;;;;;;;;;;5072049;28;20207;-44
2022/11/30 13:46:28;;;;;;;87.90;60.90;;;;;;;;;;5067527;28;20219;-45
2022/11/30 13:49:09;;;;;;;63.43;41.33;;;;;;;;;;5071657;28;20204;-43
2022/11/30 13:51:37;;;;;;;156.73;114.67;;;;;;;;;;5070218;28;20195;-44
2022/11/30 13:54:22;;;;;;;114.53;75.80;;;;;;;;;;5070035;28;20282;-44
2022/11/30 13:56:48;;;;;;;90.93;59.30;;;;;;;;;;5071741;28;20194;-45
2022/11/30 13:59:35;;;;;;;61.13;34.77;;;;;;;;;;5071973;28;20309;-44
2022/11/30 14:02:19;;;;;;;382.10;230.60;;;;;;;;;;5071776;28;20685;-45
2022/11/30 14:04:46;;;;;;;269.97;167.17;;;;;;;;;;5071699;28;20558;-45
2022/11/30 14:07:27;;;;;;;119.10;75.40;;;;;;;;;;5071832;28;20203;-45
2022/11/30 14:09:56;;;;;;;126.60;80.70;;;;;;;;;;5071412;28;20739;-45
2022/11/30 14:12:45;;;;;;;77.37;47.77;;;;;;;;;;5071758;28;20200;-45
2022/11/30 14:15:26;;;;;;;74.77;50.77;;;;;;;;;;5071874;28;20204;-45
2022/11/30 14:17:55;;;;;;;56.50;34.93;;;;;;;;;;5071503;28;20654;-45
2022/11/30 14:20:24;;;;;;;54.07;30.17;;;;;;;;;;5071650;28;20230;-44
2022/11/30 14:22:50;;;;;;;54.13;31.97;;;;;;;;;;5071558;28;20203;-44
2022/11/30 14:25:19;;;;;;;58.90;35.83;;;;;;;;;;5071697;28;20207;-45
2022/11/30 14:27:46;;;;;;;67.13;41.23;;;;;;;;;;5071558;28;20195;-45